createdAt,value
2023-01-03T00:02:15.556Z,1.10
2023-01-03T00:04:48.944Z,1.23
2023-01-03T00:07:33.592Z,1.50
2023-01-03T00:10:06.280Z,1.10
2023-01-03T00:12:33.234Z,1.90
2023-01-03T00:15:01.100Z,1.40
2023-01-03T00:17:31.468Z,1.30
2023-01-03T00:19:58.253Z,1.40
2023-01-03T00:22:25.476Z,1.30
2023-01-03T00:24:53.298Z,1.30
2023-01-03T00:27:20.164Z,1.30
2023-01-03T00:29:46.912Z,1.40
2023-01-03T00:32:13.816Z,1.20
2023-01-03T00:34:44.212Z,1.23
2023-01-03T00:37:11.000Z,1.40
2023-01-03T00:39:37.792Z,1.20
2023-01-03T00:42:04.745Z,1.20
2023-01-03T00:44:31.982Z,1.13
2023-01-03T00:46:59.447Z,1.30
2023-01-03T00:49:26.583Z,1.30
2023-01-03T00:51:56.371Z,1.50
2023-01-03T00:54:23.737Z,1.50
2023-01-03T00:56:51.693Z,1.60
2023-01-03T00:59:20.087Z,1.37
2023-01-03T01:01:55.974Z,1.40
2023-01-03T01:04:28.065Z,1.20
2023-01-03T01:07:00.651Z,1.20
2023-01-03T01:09:35.085Z,1.80
2023-01-03T01:12:02.779Z,1.33
2023-01-03T01:14:33.471Z,1.30
2023-01-03T01:17:03.136Z,1.30
2023-01-03T01:19:36.577Z,1.43
2023-01-03T01:22:03.695Z,1.33
2023-01-03T01:24:30.715Z,1.50
2023-01-03T01:26:57.380Z,1.40
2023-01-03T01:29:24.351Z,1.50
2023-01-03T01:31:51.093Z,1.70
2023-01-03T01:34:18.739Z,1.60
2023-01-03T01:36:46.577Z,1.50
2023-01-03T01:39:31.800Z,1.50
2023-01-03T01:42:22.340Z,1.40
2023-01-03T01:45:02.230Z,1.33
2023-01-03T01:47:40.142Z,1.40
2023-01-03T01:50:47.636Z,1.40
2023-01-03T01:53:24.136Z,1.23
2023-01-03T01:56:13.137Z,1.30
2023-01-03T01:58:45.032Z,1.20
2023-01-03T02:01:14.004Z,1.60
2023-01-03T02:03:44.555Z,1.93
2023-01-03T02:06:14.678Z,1.50
2023-01-03T02:08:41.792Z,1.57
2023-01-03T02:11:30.052Z,1.40
2023-01-03T02:14:28.743Z,1.73
2023-01-03T02:17:29.747Z,1.37
2023-01-03T02:20:29.790Z,1.53
2023-01-03T02:23:11.833Z,1.70
2023-01-03T02:25:56.933Z,1.40
2023-01-03T02:29:06.931Z,1.60
2023-01-03T02:31:58.553Z,1.50
2023-01-03T02:34:54.377Z,1.50
2023-01-03T02:37:47.412Z,1.57
2023-01-03T02:40:36.883Z,1.50
2023-01-03T02:43:38.981Z,1.23
2023-01-03T02:46:24.331Z,1.53
2023-01-03T02:49:16.942Z,1.20
2023-01-03T02:51:54.918Z,1.60
2023-01-03T02:54:28.559Z,1.60
2023-01-03T02:57:00.737Z,1.17
2023-01-03T02:59:43.816Z,1.23
2023-01-03T03:02:12.260Z,1.40
2023-01-03T03:04:40.741Z,1.50
2023-01-03T03:07:17.578Z,1.43
2023-01-03T03:10:02.801Z,1.37
2023-01-03T03:12:50.938Z,1.33
2023-01-03T03:15:22.933Z,1.43
2023-01-03T03:17:53.898Z,1.67
2023-01-03T03:20:39.305Z,1.43
2023-01-03T03:23:35.966Z,1.50
2023-01-03T03:26:17.751Z,1.30
2023-01-03T03:28:48.477Z,1.40
2023-01-03T03:31:27.647Z,1.30
2023-01-03T03:34:01.272Z,1.20
2023-01-03T03:36:27.944Z,1.50
2023-01-03T03:38:54.889Z,1.70
2023-01-03T03:42:01.668Z,1.70
2023-01-03T03:45:01.967Z,1.30
2023-01-03T03:48:05.651Z,1.30
2023-01-03T03:50:51.221Z,1.37
2023-01-03T03:53:23.947Z,1.47
2023-01-03T03:56:02.140Z,1.67
2023-01-03T03:58:40.808Z,2.40
2023-01-03T04:01:09.638Z,1.40
2023-01-03T04:03:39.249Z,1.93
2023-01-03T04:06:10.825Z,1.77
2023-01-03T04:08:37.657Z,1.70
2023-01-03T04:11:07.670Z,1.97
2023-01-03T04:13:37.030Z,1.53
2023-01-03T04:16:04.906Z,1.50
2023-01-03T04:18:31.733Z,1.37
2023-01-03T04:20:58.964Z,1.60
2023-01-03T04:23:25.993Z,1.53
2023-01-03T04:25:52.676Z,1.70
2023-01-03T04:28:19.852Z,1.83
2023-01-03T04:30:47.045Z,1.87
2023-01-03T04:33:13.800Z,2.10
2023-01-03T04:35:40.641Z,1.60
2023-01-03T04:38:08.572Z,1.63
2023-01-03T04:40:36.106Z,2.30
2023-01-03T04:43:21.161Z,1.77
2023-01-03T04:45:51.155Z,1.57
2023-01-03T04:48:18.248Z,1.83
2023-01-03T04:50:55.869Z,2.20
2023-01-03T04:53:24.631Z,1.50
2023-01-03T04:55:53.306Z,1.73
2023-01-03T04:58:20.884Z,1.90
2023-01-03T05:00:47.794Z,1.70
2023-01-03T05:03:14.671Z,1.63
2023-01-03T05:05:44.171Z,1.97
2023-01-03T05:08:13.639Z,1.93
2023-01-03T05:10:41.389Z,2.07
2023-01-03T05:13:08.777Z,1.93
2023-01-03T05:15:38.490Z,1.70
2023-01-03T05:18:05.676Z,1.80
2023-01-03T05:20:53.953Z,2.10
2023-01-03T05:23:39.442Z,2.00
2023-01-03T05:26:13.537Z,2.10
2023-01-03T05:28:41.890Z,1.90
2023-01-03T05:31:08.703Z,1.87
2023-01-03T05:33:39.058Z,2.00
2023-01-03T05:36:06.954Z,2.07
2023-01-03T05:38:33.633Z,2.30
2023-01-03T05:41:00.413Z,2.80
2023-01-03T05:43:27.146Z,2.03
2023-01-03T05:45:54.152Z,1.93
2023-01-03T05:48:21.674Z,2.10
2023-01-03T05:50:50.003Z,2.33
2023-01-03T05:53:16.996Z,2.13
2023-01-03T05:55:43.949Z,1.97
2023-01-03T05:58:12.547Z,2.40
2023-01-03T06:00:39.714Z,2.00
2023-01-03T06:03:06.776Z,1.97
2023-01-03T06:05:33.563Z,2.30
2023-01-03T06:08:02.111Z,2.47
2023-01-03T06:10:29.190Z,2.47
2023-01-03T06:12:55.978Z,1.70
2023-01-03T06:15:22.750Z,2.17
2023-01-03T06:17:57.471Z,1.80
2023-01-03T06:20:28.120Z,1.87
2023-01-03T06:22:55.376Z,2.20
2023-01-03T06:25:23.087Z,2.07
2023-01-03T06:27:49.790Z,2.33
2023-01-03T06:30:16.471Z,2.30
2023-01-03T06:32:44.208Z,2.20
2023-01-03T06:35:11.641Z,1.70
2023-01-03T06:37:38.512Z,2.30
2023-01-03T06:40:06.005Z,2.20
2023-01-03T06:42:40.118Z,2.23
2023-01-03T06:45:25.953Z,2.33
2023-01-03T06:48:11.406Z,1.90
2023-01-03T06:51:01.820Z,1.80
2023-01-03T06:53:34.910Z,1.83
2023-01-03T06:56:02.027Z,2.53
2023-01-03T06:58:29.098Z,2.17
2023-01-03T07:00:57.689Z,2.20
2023-01-03T07:03:24.886Z,2.30
2023-01-03T07:05:51.952Z,2.27
2023-01-03T07:08:18.817Z,2.50
2023-01-03T07:10:45.669Z,2.23
2023-01-03T07:13:30.945Z,2.33
2023-01-03T07:15:57.866Z,3.17
2023-01-03T07:18:26.214Z,2.83
2023-01-03T07:20:53.232Z,2.43
2023-01-03T07:23:20.184Z,3.07
2023-01-03T07:25:47.701Z,3.60
2023-01-03T07:28:15.808Z,3.70
2023-01-03T07:30:44.964Z,3.77
2023-01-03T07:33:14.535Z,3.83
2023-01-03T07:35:41.931Z,4.73
2023-01-03T07:38:09.673Z,4.90
2023-01-03T07:40:36.357Z,4.17
2023-01-03T07:43:21.634Z,4.47
2023-01-03T07:45:48.901Z,5.10
2023-01-03T07:48:15.821Z,5.03
2023-01-03T07:50:42.850Z,4.50
2023-01-03T07:53:10.221Z,4.50
2023-01-03T07:55:37.839Z,4.63
2023-01-03T07:58:04.744Z,5.03
2023-01-03T08:00:31.490Z,4.70
2023-01-03T08:02:58.332Z,5.00
2023-01-03T08:05:25.880Z,4.77
2023-01-03T08:07:53.308Z,4.50
2023-01-03T08:10:39.517Z,3.90
2023-01-03T08:13:18.734Z,4.53
2023-01-03T08:15:51.174Z,4.60
2023-01-03T08:18:21.217Z,4.80
2023-01-03T08:20:48.348Z,4.90
2023-01-03T08:23:15.196Z,5.00
2023-01-03T08:25:41.980Z,5.70
2023-01-03T08:28:10.352Z,5.37
2023-01-03T08:30:42.809Z,4.53
2023-01-03T08:33:12.329Z,4.30
2023-01-03T08:35:41.044Z,5.67
2023-01-03T08:38:15.159Z,4.23
2023-01-03T08:40:43.118Z,4.87
2023-01-03T08:43:12.383Z,5.00
2023-01-03T08:45:39.321Z,4.73
2023-01-03T08:48:08.021Z,4.80
2023-01-03T08:50:35.638Z,4.10
2023-01-03T08:53:02.694Z,4.13
2023-01-03T08:55:29.374Z,4.47
2023-01-03T08:57:56.876Z,4.50
2023-01-03T09:00:23.632Z,4.40
2023-01-03T09:02:50.656Z,3.60
2023-01-03T09:05:17.848Z,4.40
2023-01-03T09:07:44.667Z,4.33
2023-01-03T09:10:11.653Z,4.83
2023-01-03T09:12:38.393Z,4.73
2023-01-03T09:15:05.707Z,3.93
2023-01-03T09:17:32.426Z,4.70
2023-01-03T09:19:59.257Z,5.17
2023-01-03T09:22:26.028Z,4.70
2023-01-03T09:24:52.739Z,4.10
2023-01-03T09:27:19.506Z,4.63
2023-01-03T09:29:46.753Z,4.53
2023-01-03T09:32:13.560Z,4.70
2023-01-03T09:34:40.358Z,4.57
2023-01-03T09:37:07.128Z,4.97
2023-01-03T09:39:33.876Z,4.70
2023-01-03T09:42:19.498Z,4.93
2023-01-03T09:44:46.936Z,4.23
2023-01-03T09:47:23.901Z,4.80
2023-01-03T09:50:26.544Z,4.90
2023-01-03T09:53:02.566Z,5.20
2023-01-03T09:55:51.955Z,5.00
2023-01-03T09:58:37.363Z,5.20
2023-01-03T10:01:31.505Z,4.63
2023-01-03T10:04:33.433Z,4.87
2023-01-03T10:07:28.710Z,4.97
2023-01-03T10:10:21.712Z,4.77
2023-01-03T10:13:25.991Z,4.60
2023-01-03T10:16:24.726Z,4.57
2023-01-03T10:19:11.938Z,5.57
2023-01-03T10:21:57.276Z,4.63
2023-01-03T10:24:28.831Z,6.23
2023-01-03T10:27:17.816Z,5.63
2023-01-03T10:29:46.091Z,6.13
2023-01-03T10:32:59.529Z,6.23
2023-01-03T10:35:30.520Z,5.87
2023-01-03T10:37:58.270Z,6.20
2023-01-03T10:40:42.410Z,5.63
2023-01-03T10:43:10.581Z,5.40
2023-01-03T10:45:52.048Z,4.90
2023-01-03T10:48:18.912Z,5.60
2023-01-03T10:50:46.212Z,5.47
2023-01-03T10:53:15.625Z,5.00
2023-01-03T10:55:48.950Z,5.97
2023-01-03T10:58:34.053Z,5.30
2023-01-03T11:01:24.825Z,5.80
2023-01-03T11:04:18.162Z,5.50
2023-01-03T11:07:01.487Z,5.20
2023-01-03T11:09:35.232Z,5.40
2023-01-03T11:12:17.735Z,4.33
2023-01-03T11:14:52.564Z,5.40
2023-01-03T11:17:21.367Z,5.50
2023-01-03T11:19:49.240Z,4.73
2023-01-03T11:22:37.609Z,5.13
2023-01-03T11:25:23.475Z,4.80
2023-01-03T11:27:58.313Z,4.13
2023-01-03T11:30:39.136Z,4.10
2023-01-03T11:33:21.505Z,3.90
2023-01-03T11:35:55.303Z,3.60
2023-01-03T11:38:58.666Z,3.90
2023-01-03T11:41:52.013Z,3.70
2023-01-03T11:44:36.751Z,3.70
2023-01-03T11:47:29.715Z,3.80
2023-01-03T11:49:56.327Z,3.90
2023-01-03T11:52:29.229Z,3.50
2023-01-03T11:55:05.885Z,3.07
2023-01-03T11:58:06.168Z,3.23
2023-01-03T12:00:52.713Z,3.80
2023-01-03T12:03:43.751Z,3.37
2023-01-03T12:06:31.356Z,3.30
2023-01-03T12:09:25.420Z,2.23
2023-01-03T12:12:27.507Z,2.20
2023-01-03T12:15:22.930Z,1.90
2023-01-03T12:17:49.836Z,2.60
2023-01-03T12:20:37.279Z,3.10
2023-01-03T12:23:16.446Z,3.20
2023-01-03T12:25:48.729Z,2.57
2023-01-03T12:28:39.307Z,3.07
2023-01-03T12:31:42.807Z,3.83
2023-01-03T12:34:39.255Z,2.87
2023-01-03T12:37:16.611Z,3.13
2023-01-03T12:39:56.457Z,2.73
2023-01-03T12:42:57.984Z,2.77
2023-01-03T12:46:12.299Z,2.30
2023-01-03T12:48:54.946Z,2.40
2023-01-03T12:51:24.774Z,2.80
2023-01-03T12:54:12.371Z,3.33
2023-01-03T12:57:08.336Z,3.00
2023-01-03T12:59:56.089Z,3.13
2023-01-03T13:02:41.628Z,2.63
2023-01-03T13:05:14.919Z,2.70
2023-01-03T13:07:48.704Z,3.10
2023-01-03T13:10:19.482Z,2.53
2023-01-03T13:12:52.678Z,2.77
2023-01-03T13:15:29.839Z,2.10
2023-01-03T13:18:21.835Z,2.37
2023-01-03T13:20:54.000Z,2.40
2023-01-03T13:23:41.028Z,2.07
2023-01-03T13:26:28.472Z,2.30
2023-01-03T13:29:47.542Z,2.43
2023-01-03T13:32:16.419Z,1.90
2023-01-03T13:34:43.651Z,2.37
2023-01-03T13:37:16.236Z,2.40
2023-01-03T13:39:54.888Z,2.67
2023-01-03T13:42:37.509Z,3.30
2023-01-03T13:45:30.544Z,2.50
2023-01-03T13:47:58.305Z,2.60
2023-01-03T13:50:29.059Z,2.57
2023-01-03T13:53:10.671Z,2.60
2023-01-03T13:55:58.643Z,2.50
2023-01-03T13:58:27.218Z,3.23
2023-01-03T14:01:05.021Z,2.20
2023-01-03T14:03:50.706Z,2.30
2023-01-03T14:06:38.848Z,3.10
2023-01-03T14:09:30.010Z,2.70
2023-01-03T14:12:25.715Z,2.70
2023-01-03T14:14:57.497Z,2.97
2023-01-03T14:17:31.045Z,2.20
2023-01-03T14:20:04.330Z,3.10
2023-01-03T14:22:44.270Z,3.40
2023-01-03T14:25:41.270Z,2.80
2023-01-03T14:28:27.274Z,3.23
2023-01-03T14:30:59.892Z,3.33
2023-01-03T14:33:45.013Z,3.07
2023-01-03T14:36:16.906Z,3.03
2023-01-03T14:38:52.903Z,3.40
2023-01-03T14:41:34.813Z,2.90
2023-01-03T14:44:16.421Z,3.33
2023-01-03T14:46:53.355Z,2.87
2023-01-03T14:49:32.243Z,2.80
2023-01-03T14:52:05.698Z,2.97
2023-01-03T14:54:33.011Z,3.17
2023-01-03T14:57:01.547Z,2.80
2023-01-03T14:59:28.843Z,2.67
2023-01-03T15:01:55.718Z,2.60
2023-01-03T15:04:24.680Z,3.03
2023-01-03T15:07:04.900Z,2.70
2023-01-03T15:09:36.319Z,3.00
2023-01-03T15:12:04.913Z,3.37
2023-01-03T15:14:34.323Z,3.07
2023-01-03T15:17:05.394Z,3.40
2023-01-03T15:19:33.440Z,2.93
2023-01-03T15:22:17.947Z,3.60
2023-01-03T15:24:47.388Z,3.77
2023-01-03T15:27:33.194Z,3.10
2023-01-03T15:30:14.803Z,2.50
2023-01-03T15:32:51.672Z,2.77
2023-01-03T15:35:39.913Z,2.87
2023-01-03T15:38:28.806Z,3.83
2023-01-03T15:40:55.513Z,3.90
2023-01-03T15:43:27.013Z,3.30
2023-01-03T15:46:14.950Z,4.00
2023-01-03T15:48:47.121Z,4.10
2023-01-03T15:51:13.837Z,3.77
2023-01-03T15:53:44.790Z,4.53
2023-01-03T15:56:24.293Z,4.83
2023-01-03T15:58:54.562Z,4.20
2023-01-03T16:01:22.635Z,4.33
2023-01-03T16:03:50.909Z,4.50
2023-01-03T16:06:18.330Z,4.90
2023-01-03T16:08:45.773Z,5.10
2023-01-03T16:11:28.028Z,4.70
2023-01-03T16:14:05.100Z,4.50
2023-01-03T16:16:40.132Z,4.87
2023-01-03T16:19:07.932Z,5.23
2023-01-03T16:21:34.943Z,5.27
2023-01-03T16:24:02.654Z,5.10
2023-01-03T16:26:29.389Z,5.77
2023-01-03T16:28:56.474Z,5.10
2023-01-03T16:31:31.040Z,6.00
2023-01-03T16:33:57.990Z,5.37
2023-01-03T16:36:31.217Z,4.97
2023-01-03T16:38:58.672Z,5.90
2023-01-03T16:41:25.636Z,5.90
2023-01-03T16:43:53.273Z,6.77
2023-01-03T16:46:25.469Z,6.63
2023-01-03T16:48:54.067Z,7.17
2023-01-03T16:51:24.974Z,7.20
2023-01-03T16:53:53.574Z,6.37
2023-01-03T16:56:20.681Z,6.33
2023-01-03T16:58:47.502Z,7.00
2023-01-03T17:01:14.484Z,7.00
2023-01-03T17:03:42.290Z,6.50
2023-01-03T17:06:38.089Z,6.33
2023-01-03T17:09:19.256Z,6.63
2023-01-03T17:11:46.341Z,7.87
2023-01-03T17:14:20.172Z,7.23
2023-01-03T17:16:47.816Z,7.03
2023-01-03T17:20:02.007Z,7.77
2023-01-03T17:22:18.034Z,7.03
2023-01-03T17:24:45.411Z,7.00
2023-01-03T17:27:31.469Z,7.30
2023-01-03T17:30:06.818Z,7.53
2023-01-03T17:32:34.121Z,7.03
2023-01-03T17:35:03.148Z,7.20
2023-01-03T17:37:29.989Z,7.80
2023-01-03T17:39:59.639Z,7.33
2023-01-03T17:42:29.030Z,7.03
2023-01-03T17:45:14.732Z,7.20
2023-01-03T17:48:02.388Z,7.23
2023-01-03T17:50:31.830Z,7.30
2023-01-03T17:53:01.757Z,7.53
2023-01-03T17:55:30.357Z,6.97
2023-01-03T17:58:00.389Z,6.80
2023-01-03T18:00:28.715Z,8.33
2023-01-03T18:02:56.748Z,8.47
2023-01-03T18:05:28.611Z,9.30
2023-01-03T18:08:01.095Z,8.57
2023-01-03T18:10:32.300Z,8.90
2023-01-03T18:12:59.199Z,8.90
2023-01-03T18:15:26.321Z,8.63
2023-01-03T18:17:53.383Z,9.73
2023-01-03T18:20:20.758Z,8.73
2023-01-03T18:22:48.432Z,9.30
2023-01-03T18:25:23.732Z,9.80
2023-01-03T18:27:54.674Z,8.17
2023-01-03T18:30:21.486Z,7.53
2023-01-03T18:32:48.579Z,8.10
2023-01-03T18:35:22.308Z,7.50
2023-01-03T18:37:54.700Z,7.73
2023-01-03T18:40:27.418Z,7.87
2023-01-03T18:43:09.688Z,8.13
2023-01-03T18:45:38.083Z,8.67
2023-01-03T18:48:05.168Z,7.97
2023-01-03T18:50:32.198Z,8.23
2023-01-03T18:53:04.368Z,8.63
2023-01-03T18:55:33.941Z,8.83
2023-01-03T18:58:25.753Z,8.33
2023-01-03T19:00:52.537Z,7.90
2023-01-03T19:03:24.694Z,7.33
2023-01-03T19:05:54.017Z,8.00
2023-01-03T19:08:24.310Z,9.70
2023-01-03T19:10:52.052Z,8.13
2023-01-03T19:13:28.067Z,8.20
2023-01-03T19:15:55.439Z,8.90
2023-01-03T19:18:22.681Z,9.47
2023-01-03T19:20:50.835Z,11.73
2023-01-03T19:23:25.309Z,9.10
2023-01-03T19:25:52.688Z,21.97
2023-01-03T19:28:23.991Z,36.50
2023-01-03T19:30:51.392Z,17.47
2023-01-03T19:33:19.461Z,11.03
2023-01-03T19:35:46.635Z,11.20
2023-01-03T19:38:13.597Z,11.63
2023-01-03T19:40:42.965Z,11.63
2023-01-03T19:43:21.701Z,31.20
2023-01-03T19:45:49.035Z,32.20
2023-01-03T19:48:19.334Z,22.80
2023-01-03T19:50:46.967Z,23.00
2023-01-03T19:53:14.042Z,20.70
2023-01-03T19:55:44.072Z,17.03
2023-01-03T19:58:37.090Z,22.57
2023-01-03T20:01:04.343Z,14.57
2023-01-03T20:03:42.853Z,12.73
2023-01-03T20:06:15.538Z,11.13
2023-01-03T20:08:42.343Z,11.83
2023-01-03T20:11:27.331Z,11.73
2023-01-03T20:13:54.051Z,11.90
2023-01-03T20:16:23.580Z,11.53
2023-01-03T20:18:50.376Z,11.70
2023-01-03T20:21:22.803Z,10.87
2023-01-03T20:23:56.594Z,11.60
2023-01-03T20:26:24.980Z,11.03
2023-01-03T20:28:53.118Z,9.87
2023-01-03T20:31:20.791Z,10.27
2023-01-03T20:33:48.136Z,10.60
2023-01-03T20:36:23.127Z,10.90
2023-01-03T20:38:55.747Z,10.20
2023-01-03T20:41:36.067Z,10.63
2023-01-03T20:44:07.288Z,10.10
2023-01-03T20:46:34.279Z,11.43
2023-01-03T20:49:03.325Z,9.93
2023-01-03T20:51:30.472Z,10.70
2023-01-03T20:53:57.298Z,9.80
2023-01-03T20:56:26.153Z,10.10
2023-01-03T20:58:52.874Z,10.37
2023-01-03T21:01:19.650Z,11.00
2023-01-03T21:03:46.540Z,10.50
2023-01-03T21:06:22.005Z,11.73
2023-01-03T21:08:55.311Z,10.40
2023-01-03T21:11:29.162Z,10.67
2023-01-03T21:13:57.719Z,10.70
2023-01-03T21:16:43.691Z,11.00
2023-01-03T21:19:22.185Z,11.40
2023-01-03T21:21:51.185Z,11.03
2023-01-03T21:24:20.171Z,12.13
2023-01-03T21:26:46.874Z,11.40
2023-01-03T21:29:13.874Z,10.13
2023-01-03T21:31:42.501Z,11.33
2023-01-03T21:34:27.569Z,11.23
2023-01-03T21:36:54.297Z,11.37
2023-01-03T21:39:21.129Z,10.00
2023-01-03T21:42:06.713Z,10.23
2023-01-03T21:44:33.417Z,9.23
2023-01-03T21:47:00.100Z,11.00
2023-01-03T21:49:26.867Z,12.23
2023-01-03T21:51:53.524Z,10.23
2023-01-03T21:54:20.358Z,10.10
2023-01-03T21:56:47.320Z,10.33
2023-01-03T21:59:15.549Z,9.40
2023-01-03T22:02:02.850Z,9.13
2023-01-03T22:04:30.249Z,9.30
2023-01-03T22:07:00.620Z,9.70
2023-01-03T22:09:48.083Z,9.70
2023-01-03T22:12:16.104Z,9.67
2023-01-03T22:14:44.278Z,9.90
2023-01-03T22:17:11.197Z,9.40
2023-01-03T22:19:37.922Z,9.70
2023-01-03T22:22:04.943Z,9.57
2023-01-03T22:24:31.839Z,9.27
2023-01-03T22:26:58.669Z,8.73
2023-01-03T22:29:25.531Z,9.97
2023-01-03T22:31:52.385Z,8.30
2023-01-03T22:34:19.182Z,8.70
2023-01-03T22:36:45.859Z,10.40
2023-01-03T22:39:12.566Z,9.97
2023-01-03T22:41:39.325Z,9.53
2023-01-03T22:44:06.102Z,10.37
2023-01-03T22:46:33.010Z,9.53
2023-01-03T22:48:59.822Z,9.53
2023-01-03T22:51:26.599Z,9.17
2023-01-03T22:53:53.385Z,9.90
2023-01-03T22:56:20.209Z,10.47
2023-01-03T22:58:46.941Z,9.43
2023-01-03T23:01:16.518Z,9.90
2023-01-03T23:03:44.904Z,8.70
2023-01-03T23:06:17.613Z,9.20
2023-01-03T23:08:44.552Z,8.77
2023-01-03T23:11:35.278Z,9.13
2023-01-03T23:14:09.567Z,7.37
2023-01-03T23:16:36.654Z,8.53
2023-01-03T23:19:05.976Z,9.43
2023-01-03T23:21:34.175Z,8.57
2023-01-03T23:24:01.405Z,8.73
2023-01-03T23:26:28.431Z,9.80
2023-01-03T23:29:02.385Z,8.93
2023-01-03T23:31:29.665Z,8.73
2023-01-03T23:34:00.447Z,9.07
2023-01-03T23:36:28.592Z,9.87
2023-01-03T23:38:56.083Z,10.00
2023-01-03T23:41:23.190Z,10.10
2023-01-03T23:43:50.682Z,10.20
2023-01-03T23:46:20.265Z,10.73
2023-01-03T23:48:47.793Z,10.03
2023-01-03T23:51:14.847Z,9.40
2023-01-03T23:53:43.472Z,10.27
2023-01-03T23:56:16.206Z,10.33
2023-01-03T23:58:43.221Z,11.00
